PWSweather.com
Personal Weather Stations
Station Observations
CALONGE
CalongeES 17251

CalongeES 17251

Lat: 41.85972222, Lon: 3.077777778

Elevation: 16

Station Type: Oregon WMR928N

www.calonge-meteoweb.com

High Low Average
Temperature 96.8°F36.0°C 66.0°F18.9°C 79.5°F26.4°C
Dew Point 61.1°F16.2°C 42.8°F6.0°C 52.7°F11.5°C
Winds 10.5 mph 16.9 kmh Calm Calm 6.0 mph S9.7 kmh S
Wind Gusts 17.3 mph27.8 kmh -- 9.0 mph14.5 kmh
Humidity 71% 17% 44%
Pressure 30.12 in1020.0 mb 30.09 in1019.0 mb -
Precipitation 0.00 in0.0 mm - -
Hour Temp Dew Point Humidity Winds Wind Gusts Pressure Precip Precip Rate Daily Precip Total
12:00 AM 68.2°F20.1°C 58.4°F14.7°C 71% 6.4 mph W10.3 kmh W 7.6 mph12.2 kmh 30.09 in1019.0 mb 0.00 in0.0 mm 0.00 in0.0 mm 0.00 in0.0 mm
12:15 AM 68.0°F20.0°C 58.2°F14.6°C 71% 5.9 mph W9.5 kmh W 8.2 mph13.2 kmh 30.09 in1019.0 mb 0.00 in0.0 mm 0.00 in0.0 mm 0.00 in0.0 mm
12:30 AM 67.8°F19.9°C 58.1°F14.5°C 71% 5.9 mph W9.5 kmh W 10.5 mph16.9 kmh 30.09 in1019.0 mb 0.00 in0.0 mm 0.00 in0.0 mm 0.00 in0.0 mm
12:45 AM 68.2°F20.1°C 58.0°F14.4°C 70% 7.0 mph W11.3 kmh W 10.5 mph16.9 kmh 30.09 in1019.0 mb 0.00 in0.0 mm 0.00 in0.0 mm 0.00 in0.0 mm
01:00 AM 68.0°F20.0°C 57.8°F14.3°C 70% 7.0 mph W11.3 kmh W 10.0 mph16.1 kmh 30.09 in1019.0 mb 0.00 in0.0 mm 0.00 in0.0 mm 0.00 in0.0 mm
01:15 AM 67.6°F19.8°C 57.5°F14.2°C 70% 4.1 mph W6.6 kmh W 10.0 mph16.1 kmh 30.09 in1019.0 mb 0.00 in0.0 mm 0.00 in0.0 mm 0.00 in0.0 mm
01:30 AM 67.5°F19.7°C 57.3°F14.1°C 70% 4.7 mph W7.6 kmh W 10.5 mph16.9 kmh 30.09 in1019.0 mb 0.00 in0.0 mm 0.00 in0.0 mm 0.00 in0.0 mm
01:45 AM 67.5°F19.7°C 56.9°F13.8°C 69% 5.3 mph W8.5 kmh W 7.6 mph12.2 kmh 30.09 in1019.0 mb 0.00 in0.0 mm 0.00 in0.0 mm 0.00 in0.0 mm
02:00 AM 67.3°F19.6°C 56.8°F13.8°C 69% 7.6 mph W12.2 kmh W 10.5 mph16.9 kmh 30.09 in1019.0 mb 0.00 in0.0 mm 0.00 in0.0 mm 0.00 in0.0 mm
02:15 AM 67.3°F19.6°C 56.4°F13.6°C 68% 5.9 mph W9.5 kmh W 8.8 mph14.2 kmh 30.09 in1019.0 mb 0.00 in0.0 mm 0.00 in0.0 mm 0.00 in0.0 mm
02:30 AM 66.9°F19.4°C 56.0°F13.3°C 68% 5.9 mph W9.5 kmh W 10.0 mph16.1 kmh 30.09 in1019.0 mb 0.00 in0.0 mm 0.00 in0.0 mm 0.00 in0.0 mm
02:45 AM 66.6°F19.2°C 55.7°F13.2°C 68% 6.4 mph W10.3 kmh W 8.8 mph14.2 kmh 30.09 in1019.0 mb 0.00 in0.0 mm 0.00 in0.0 mm 0.00 in0.0 mm
03:00 AM 66.4°F19.1°C 55.5°F13.1°C 68% 6.4 mph W10.3 kmh W 10.0 mph16.1 kmh 30.09 in1019.0 mb 0.00 in0.0 mm 0.00 in0.0 mm 0.00 in0.0 mm
03:15 AM 66.4°F19.1°C 55.1°F12.8°C 67% 6.4 mph WNW10.3 kmh WNW 10.0 mph16.1 kmh 30.09 in1019.0 mb 0.00 in0.0 mm 0.00 in0.0 mm 0.00 in0.0 mm
03:30 AM 66.0°F18.9°C 55.2°F12.9°C 68% 7.0 mph W11.3 kmh W 8.2 mph13.2 kmh 30.09 in1019.0 mb 0.00 in0.0 mm 0.00 in0.0 mm 0.00 in0.0 mm
03:45 AM 66.0°F18.9°C 55.2°F12.9°C 68% 8.8 mph W14.2 kmh W 10.8 mph17.4 kmh 30.09 in1019.0 mb 0.00 in0.0 mm 0.00 in0.0 mm 0.00 in0.0 mm
04:00 AM 66.4°F19.1°C 55.1°F12.8°C 67% 5.3 mph W8.5 kmh W 10.8 mph17.4 kmh 30.09 in1019.0 mb 0.00 in0.0 mm 0.00 in0.0 mm 0.00 in0.0 mm
04:15 AM 66.4°F19.1°C 54.3°F12.4°C 65% 6.4 mph W10.3 kmh W 8.2 mph13.2 kmh 30.09 in1019.0 mb 0.00 in0.0 mm 0.00 in0.0 mm 0.00 in0.0 mm
04:30 AM 66.0°F18.9°C 54.7°F12.6°C 67% 6.4 mph W10.3 kmh W 10.5 mph16.9 kmh 30.09 in1019.0 mb 0.00 in0.0 mm 0.00 in0.0 mm 0.00 in0.0 mm
04:45 AM 66.0°F18.9°C 54.7°F12.6°C 67% 6.4 mph W10.3 kmh W 8.2 mph13.2 kmh 30.09 in1019.0 mb 0.00 in0.0 mm 0.00 in0.0 mm 0.00 in0.0 mm
05:00 AM 66.0°F18.9°C 55.2°F12.9°C 68% 5.9 mph W9.5 kmh W 10.0 mph16.1 kmh 30.09 in1019.0 mb 0.00 in0.0 mm 0.00 in0.0 mm 0.00 in0.0 mm
05:15 AM 66.2°F19.0°C 54.9°F12.7°C 67% 5.3 mph W8.5 kmh W 11.4 mph18.3 kmh 30.09 in1019.0 mb 0.00 in0.0 mm 0.00 in0.0 mm 0.00 in0.0 mm
05:30 AM 66.6°F19.2°C 54.4°F12.4°C 65% 5.3 mph WNW8.5 kmh WNW 8.2 mph13.2 kmh 30.09 in1019.0 mb 0.00 in0.0 mm 0.00 in0.0 mm 0.00 in0.0 mm
05:45 AM 66.7°F19.3°C 54.6°F12.6°C 65% 8.8 mph W14.2 kmh W 12.6 mph20.3 kmh 30.09 in1019.0 mb 0.00 in0.0 mm 0.00 in0.0 mm 0.00 in0.0 mm
06:00 AM 67.5°F19.7°C 55.7°F13.2°C 66% 6.4 mph WNW10.3 kmh WNW 8.2 mph13.2 kmh 30.09 in1019.0 mb 0.00 in0.0 mm 0.00 in0.0 mm 0.00 in0.0 mm
06:15 AM 68.0°F20.0°C 54.0°F12.2°C 61% 4.1 mph W6.6 kmh W 7.6 mph12.2 kmh 30.12 in1020.0 mb 0.00 in0.0 mm 0.00 in0.0 mm 0.00 in0.0 mm
06:30 AM 68.9°F20.5°C 54.4°F12.4°C 60% 4.1 mph W6.6 kmh W 8.2 mph13.2 kmh 30.12 in1020.0 mb 0.00 in0.0 mm 0.00 in0.0 mm 0.00 in0.0 mm
06:45 AM 70.7°F21.5°C 55.2°F12.9°C 58% 6.4 mph NW10.3 kmh NW 8.8 mph14.2 kmh 30.12 in1020.0 mb 0.00 in0.0 mm 0.00 in0.0 mm 0.00 in0.0 mm
07:00 AM 73.6°F23.1°C 53.2°F11.8°C 49% 5.9 mph NW9.5 kmh NW 8.2 mph13.2 kmh 30.09 in1019.0 mb 0.00 in0.0 mm 0.00 in0.0 mm 0.00 in0.0 mm
07:15 AM 75.9°F24.4°C 51.8°F11.0°C 43% 5.9 mph NW9.5 kmh NW 8.2 mph13.2 kmh 30.12 in1020.0 mb 0.00 in0.0 mm 0.00 in0.0 mm 0.00 in0.0 mm
07:30 AM 78.1°F25.6°C 51.8°F11.0°C 40% 7.6 mph NW12.2 kmh NW 10.8 mph17.4 kmh 30.12 in1020.0 mb 0.00 in0.0 mm 0.00 in0.0 mm 0.00 in0.0 mm
07:45 AM 79.3°F26.3°C 51.5°F10.8°C 38% 4.7 mph NW7.6 kmh NW 8.2 mph13.2 kmh 30.12 in1020.0 mb 0.00 in0.0 mm 0.00 in0.0 mm 0.00 in0.0 mm
08:00 AM 80.6°F27.0°C 50.4°F10.2°C 35% 4.7 mph NW7.6 kmh NW 10.0 mph16.1 kmh 30.12 in1020.0 mb 0.00 in0.0 mm 0.00 in0.0 mm 0.00 in0.0 mm
08:15 AM 82.0°F27.8°C 49.3°F9.6°C 32% 7.0 mph NW11.3 kmh NW 11.4 mph18.3 kmh 30.12 in1020.0 mb 0.00 in0.0 mm 0.00 in0.0 mm 0.00 in0.0 mm
08:30 AM 83.5°F28.6°C 49.7°F9.8°C 31% 4.7 mph NNW7.6 kmh NNW 7.6 mph12.2 kmh 30.12 in1020.0 mb 0.00 in0.0 mm 0.00 in0.0 mm 0.00 in0.0 mm
08:45 AM 85.1°F29.5°C 50.2°F10.1°C 30% 2.9 mph NNW4.7 kmh NNW 7.6 mph12.2 kmh 30.12 in1020.0 mb 0.00 in0.0 mm 0.00 in0.0 mm 0.00 in0.0 mm
09:00 AM 86.2°F30.1°C 49.3°F9.6°C 28% 2.9 mph NNW4.7 kmh NNW 10.5 mph16.9 kmh 30.12 in1020.0 mb 0.00 in0.0 mm 0.00 in0.0 mm 0.00 in0.0 mm
09:15 AM 87.3°F30.7°C 50.2°F10.1°C 28% 3.5 mph N5.6 kmh N 7.6 mph12.2 kmh 30.12 in1020.0 mb 0.00 in0.0 mm 0.00 in0.0 mm 0.00 in0.0 mm
09:30 AM 88.0°F31.1°C 47.7°F8.7°C 25% 6.4 mph NW10.3 kmh NW 10.0 mph16.1 kmh 30.09 in1019.0 mb 0.00 in0.0 mm 0.00 in0.0 mm 0.00 in0.0 mm
09:45 AM 88.5°F31.4°C 48.2°F9.0°C 25% 6.4 mph NNW10.3 kmh NNW 10.8 mph17.4 kmh 30.12 in1020.0 mb 0.00 in0.0 mm 0.00 in0.0 mm 0.00 in0.0 mm
10:00 AM 88.9°F31.6°C 46.3°F7.9°C 23% 5.9 mph NNW9.5 kmh NNW 12.0 mph19.3 kmh 30.12 in1020.0 mb 0.00 in0.0 mm 0.00 in0.0 mm 0.00 in0.0 mm
10:15 AM 89.8°F32.1°C 44.6°F7.0°C 21% 4.7 mph NNE7.6 kmh NNE 10.0 mph16.1 kmh 30.12 in1020.0 mb 0.00 in0.0 mm 0.00 in0.0 mm 0.00 in0.0 mm
10:30 AM 90.7°F32.6°C 42.8°F6.0°C 19% 7.0 mph NE11.3 kmh NE 11.4 mph18.3 kmh 30.12 in1020.0 mb 0.00 in0.0 mm 0.00 in0.0 mm 0.00 in0.0 mm
10:45 AM 91.2°F32.9°C 43.2°F6.2°C 19% 8.2 mph NE13.2 kmh NE 11.4 mph18.3 kmh 30.12 in1020.0 mb 0.00 in0.0 mm 0.00 in0.0 mm 0.00 in0.0 mm
11:00 AM 91.8°F33.2°C 46.3°F7.9°C 21% 8.8 mph ENE14.2 kmh ENE 14.4 mph23.2 kmh 30.12 in1020.0 mb 0.00 in0.0 mm 0.00 in0.0 mm 0.00 in0.0 mm
11:15 AM 92.1°F33.4°C 45.3°F7.4°C 20% 8.2 mph ENE13.2 kmh ENE 14.4 mph23.2 kmh 30.12 in1020.0 mb 0.00 in0.0 mm 0.00 in0.0 mm 0.00 in0.0 mm
11:30 AM 92.7°F33.7°C 44.4°F6.9°C 19% 10.0 mph ENE16.1 kmh ENE 13.8 mph22.2 kmh 30.12 in1020.0 mb 0.00 in0.0 mm 0.00 in0.0 mm 0.00 in0.0 mm
11:45 AM 93.2°F34.0°C 43.4°F6.3°C 18% 7.0 mph ENE11.3 kmh ENE 14.4 mph23.2 kmh 30.12 in1020.0 mb 0.00 in0.0 mm 0.00 in0.0 mm 0.00 in0.0 mm
12:00 PM 93.4°F34.1°C 43.5°F6.4°C 18% 7.6 mph NE12.2 kmh NE 13.2 mph21.2 kmh 30.12 in1020.0 mb 0.00 in0.0 mm 0.00 in0.0 mm 0.00 in0.0 mm
12:15 PM 93.0°F33.9°C 43.2°F6.2°C 18% 6.4 mph NE10.3 kmh NE 14.4 mph23.2 kmh 30.12 in1020.0 mb 0.00 in0.0 mm 0.00 in0.0 mm 0.00 in0.0 mm
12:30 PM 94.1°F34.5°C 44.1°F6.7°C 18% 5.3 mph ENE8.5 kmh ENE 13.8 mph22.2 kmh 30.12 in1020.0 mb 0.00 in0.0 mm 0.00 in0.0 mm 0.00 in0.0 mm
12:45 PM 95.2°F35.1°C 43.5°F6.4°C 17% 7.6 mph E12.2 kmh E 17.3 mph27.8 kmh 30.12 in1020.0 mb 0.00 in0.0 mm 0.00 in0.0 mm 0.00 in0.0 mm
01:00 PM 95.7°F35.4°C 43.9°F6.6°C 17% 8.2 mph E13.2 kmh E 12.0 mph19.3 kmh 30.12 in1020.0 mb 0.00 in0.0 mm 0.00 in0.0 mm 0.00 in0.0 mm
01:15 PM 96.1°F35.6°C 44.2°F6.8°C 17% 7.0 mph E11.3 kmh E 14.4 mph23.2 kmh 30.09 in1019.0 mb 0.00 in0.0 mm 0.00 in0.0 mm 0.00 in0.0 mm
01:30 PM 96.6°F35.9°C 44.7°F7.1°C 17% 6.4 mph E10.3 kmh E 13.2 mph21.2 kmh 30.09 in1019.0 mb 0.00 in0.0 mm 0.00 in0.0 mm 0.00 in0.0 mm
01:45 PM 96.8°F36.0°C 46.3°F7.9°C 18% 9.4 mph SE15.1 kmh SE 13.2 mph21.2 kmh 30.09 in1019.0 mb 0.00 in0.0 mm 0.00 in0.0 mm 0.00 in0.0 mm
02:00 PM 95.9°F35.5°C 48.4°F9.1°C 20% 8.2 mph SSE13.2 kmh SSE 11.4 mph18.3 kmh 30.09 in1019.0 mb 0.00 in0.0 mm 0.00 in0.0 mm 0.00 in0.0 mm
02:15 PM 95.4°F35.2°C 46.6°F8.1°C 19% 9.4 mph SE15.1 kmh SE 13.2 mph21.2 kmh 30.09 in1019.0 mb 0.00 in0.0 mm 0.00 in0.0 mm 0.00 in0.0 mm
02:30 PM 95.5°F35.3°C 46.7°F8.2°C 19% 9.4 mph SE15.1 kmh SE 11.4 mph18.3 kmh 30.09 in1019.0 mb 0.00 in0.0 mm 0.00 in0.0 mm 0.00 in0.0 mm
02:45 PM 95.2°F35.1°C 43.5°F6.4°C 17% 8.2 mph SE13.2 kmh SE 13.2 mph21.2 kmh 30.09 in1019.0 mb 0.00 in0.0 mm 0.00 in0.0 mm 0.00 in0.0 mm
03:00 PM 94.8°F34.9°C 46.1°F7.8°C 19% 9.4 mph SSE15.1 kmh SSE 13.2 mph21.2 kmh 30.09 in1019.0 mb 0.00 in0.0 mm 0.00 in0.0 mm 0.00 in0.0 mm
03:15 PM 93.4°F34.1°C 51.2°F10.7°C 24% 5.9 mph SSE9.5 kmh SSE 11.4 mph18.3 kmh 30.09 in1019.0 mb 0.00 in0.0 mm 0.00 in0.0 mm 0.00 in0.0 mm
03:30 PM 90.9°F32.7°C 55.1°F12.8°C 30% 10.5 mph SSE16.9 kmh SSE 13.2 mph21.2 kmh 30.09 in1019.0 mb 0.00 in0.0 mm 0.00 in0.0 mm 0.00 in0.0 mm
03:45 PM 88.5°F31.4°C 55.7°F13.2°C 33% 8.2 mph S13.2 kmh S 13.8 mph22.2 kmh 30.09 in1019.0 mb 0.00 in0.0 mm 0.00 in0.0 mm 0.00 in0.0 mm
04:00 PM 88.7°F31.5°C 55.9°F13.3°C 33% 5.9 mph S9.5 kmh S 10.8 mph17.4 kmh 30.09 in1019.0 mb 0.00 in0.0 mm 0.00 in0.0 mm 0.00 in0.0 mm
04:15 PM 88.2°F31.2°C 56.3°F13.5°C 34% 8.2 mph SSE13.2 kmh SSE 13.2 mph21.2 kmh 30.09 in1019.0 mb 0.00 in0.0 mm 0.00 in0.0 mm 0.00 in0.0 mm
04:30 PM 87.4°F30.8°C 57.2°F14.0°C 36% 8.2 mph S13.2 kmh S 11.4 mph18.3 kmh 30.09 in1019.0 mb 0.00 in0.0 mm 0.00 in0.0 mm 0.00 in0.0 mm
04:45 PM 85.8°F29.9°C 58.7°F14.8°C 40% 9.4 mph SSE15.1 kmh SSE 11.4 mph18.3 kmh 30.09 in1019.0 mb 0.00 in0.0 mm 0.00 in0.0 mm 0.00 in0.0 mm
05:00 PM 84.7°F29.3°C 57.7°F14.3°C 40% 7.0 mph SE11.3 kmh SE 12.0 mph19.3 kmh 30.09 in1019.0 mb 0.00 in0.0 mm 0.00 in0.0 mm 0.00 in0.0 mm
05:15 PM 84.2°F29.0°C 57.3°F14.1°C 40% 10.0 mph SE16.1 kmh SE 11.4 mph18.3 kmh 30.09 in1019.0 mb 0.00 in0.0 mm 0.00 in0.0 mm 0.00 in0.0 mm
05:30 PM 83.7°F28.7°C 57.5°F14.2°C 41% 8.2 mph SE13.2 kmh SE 11.4 mph18.3 kmh 30.09 in1019.0 mb 0.00 in0.0 mm 0.00 in0.0 mm 0.00 in0.0 mm
05:45 PM 83.7°F28.7°C 56.1°F13.4°C 39% 7.6 mph SE12.2 kmh SE 10.5 mph16.9 kmh 30.09 in1019.0 mb 0.00 in0.0 mm 0.00 in0.0 mm 0.00 in0.0 mm
06:00 PM 83.7°F28.7°C 56.8°F13.8°C 40% 5.3 mph SE8.5 kmh SE 10.0 mph16.1 kmh 30.09 in1019.0 mb 0.00 in0.0 mm 0.00 in0.0 mm 0.00 in0.0 mm
06:15 PM 83.3°F28.5°C 57.8°F14.3°C 42% 4.1 mph SE6.6 kmh SE 10.0 mph16.1 kmh 30.09 in1019.0 mb 0.00 in0.0 mm 0.00 in0.0 mm 0.00 in0.0 mm
06:30 PM 82.8°F28.2°C 59.3°F15.2°C 45% 5.9 mph SE9.5 kmh SE 8.2 mph13.2 kmh 30.09 in1019.0 mb 0.00 in0.0 mm 0.00 in0.0 mm 0.00 in0.0 mm
06:45 PM 81.7°F27.6°C 60.7°F15.9°C 49% 5.9 mph ESE9.5 kmh ESE 8.2 mph13.2 kmh 30.09 in1019.0 mb 0.00 in0.0 mm 0.00 in0.0 mm 0.00 in0.0 mm
07:00 PM 81.3°F27.4°C 59.8°F15.4°C 48% 4.1 mph ESE6.6 kmh ESE 7.0 mph11.3 kmh 30.09 in1019.0 mb 0.00 in0.0 mm 0.00 in0.0 mm 0.00 in0.0 mm
07:15 PM 81.3°F27.4°C 59.2°F15.1°C 47% 4.1 mph E6.6 kmh E 6.4 mph10.3 kmh 30.09 in1019.0 mb 0.00 in0.0 mm 0.00 in0.0 mm 0.00 in0.0 mm
07:30 PM 81.1°F27.3°C 59.6°F15.3°C 48% 4.7 mph E7.6 kmh E 6.4 mph10.3 kmh 30.09 in1019.0 mb 0.00 in0.0 mm 0.00 in0.0 mm 0.00 in0.0 mm
07:45 PM 80.6°F27.0°C 60.2°F15.7°C 50% Calm Calm -- 30.09 in1019.0 mb 0.00 in0.0 mm 0.00 in0.0 mm 0.00 in0.0 mm
08:00 PM 79.7°F26.5°C 61.1°F16.2°C 53% Calm Calm -- 30.09 in1019.0 mb 0.00 in0.0 mm 0.00 in0.0 mm 0.00 in0.0 mm
08:15 PM 78.6°F25.9°C 61.1°F16.2°C 55% Calm Calm -- 30.09 in1019.0 mb 0.00 in0.0 mm 0.00 in0.0 mm 0.00 in0.0 mm
08:30 PM 78.1°F25.6°C 61.1°F16.2°C 56% Calm Calm -- 30.09 in1019.0 mb 0.00 in0.0 mm 0.00 in0.0 mm 0.00 in0.0 mm
08:45 PM 77.0°F25.0°C 58.0°F14.4°C 52% Calm Calm -- 30.09 in1019.0 mb 0.00 in0.0 mm 0.00 in0.0 mm 0.00 in0.0 mm
09:00 PM 75.9°F24.4°C 54.2°F12.3°C 47% Calm Calm -- 30.09 in1019.0 mb 0.00 in0.0 mm 0.00 in0.0 mm 0.00 in0.0 mm
09:15 PM 75.6°F24.2°C 53.3°F11.8°C 46% 3.5 mph W5.6 kmh W 6.4 mph10.3 kmh 30.09 in1019.0 mb 0.00 in0.0 mm 0.00 in0.0 mm 0.00 in0.0 mm
09:30 PM 75.0°F23.9°C 52.8°F11.6°C 46% Calm Calm 4.1 mph6.6 kmh 30.09 in1019.0 mb 0.00 in0.0 mm 0.00 in0.0 mm 0.00 in0.0 mm
09:45 PM 73.8°F23.2°C 51.7°F10.9°C 46% Calm Calm -- 30.09 in1019.0 mb 0.00 in0.0 mm 0.00 in0.0 mm 0.00 in0.0 mm
10:00 PM 72.9°F22.7°C 51.4°F10.8°C 47% Calm Calm -- 30.12 in1020.0 mb 0.00 in0.0 mm 0.00 in0.0 mm 0.00 in0.0 mm
10:15 PM 72.3°F22.4°C 51.5°F10.8°C 48% Calm Calm -- 30.12 in1020.0 mb 0.00 in0.0 mm 0.00 in0.0 mm 0.00 in0.0 mm
10:30 PM 71.8°F22.1°C 51.0°F10.6°C 48% Calm Calm -- 30.12 in1020.0 mb 0.00 in0.0 mm 0.00 in0.0 mm 0.00 in0.0 mm
10:45 PM 71.2°F21.8°C 50.5°F10.3°C 48% 4.1 mph W6.6 kmh W 6.4 mph10.3 kmh 30.12 in1020.0 mb 0.00 in0.0 mm 0.00 in0.0 mm 0.00 in0.0 mm
11:00 PM 71.1°F21.7°C 49.8°F9.9°C 47% 4.7 mph W7.6 kmh W 8.2 mph13.2 kmh 30.12 in1020.0 mb 0.00 in0.0 mm 0.00 in0.0 mm 0.00 in0.0 mm
11:15 PM 70.9°F21.6°C 49.1°F9.5°C 46% 4.7 mph W7.6 kmh W 7.0 mph11.3 kmh 30.12 in1020.0 mb 0.00 in0.0 mm 0.00 in0.0 mm 0.00 in0.0 mm
11:30 PM 70.2°F21.2°C 49.0°F9.4°C 47% Calm Calm -- 30.12 in1020.0 mb 0.00 in0.0 mm 0.00 in0.0 mm 0.00 in0.0 mm
11:45 PM 69.4°F20.8°C 48.9°F9.4°C 48% 4.1 mph W6.6 kmh W 6.4 mph10.3 kmh 30.12 in1020.0 mb 0.00 in0.0 mm 0.00 in0.0 mm 0.00 in0.0 mm